Pagrindinis puslapis
METAR-TAF:

METAR-TAF

Oro uostai :

Akapulkas, Meksika

platuma: 16-46N, ilguma: 099-45W, Aukštis: 5 m

Dabartinis oras

Ataskaita buvo paskelbta 1 valandą ir 12 minutes, ne 21:46 UTC
Vėjas 10 kt iš Vakarų
Temperatūra 28°C
Drėgmė 70%
Slėgis 1008 hPa
Matomumas: 9.7 km
Giedras dangus

METAR: MMAA 302146Z 26010KT 6SM SKC 28/22 A2976 RMK HZY CU FU E

Laikas: 17:58 (22:58 UTC)

Prognozė

Ataskaita buvo paskelbta 6 valandos ir 22 minutes, ne 16:36 UTC
Prognozė galioja nuo 30 metu 18 UTC su 31 metu 24 UTC
Vėjas 10 kt iš Vakarų/Pietvakarių
Matomumas: 6.4 km
Išsisklaidę debesys ne aukštis 10000 ft
migla
Nuo 31 metu 0400 UTC
Vėjas 5 kt iš Šiaurės Vakarų
Matomumas: 8.0 km
Išsisklaidę debesys ne aukštis 1500 ft
Išsisklaidę debesys ne aukštis 12000 ft
migla
Nuo 31 metu 1700 UTC
Vėjas 10 kt iš Vakarų/Pietvakarių
Matomumas: 8.0 km
Išsisklaidę debesys ne aukštis 30000 ft
migla

TAF: MMAA 301636Z 3018/3124 25010KT 4SM HZ SCT100 TX28/3018Z TN23/3112Z FM310400 31005KT 5SM HZ SCT015 SCT120 FM311700 25010KT 5SM HZ SCT300

Orai ataskaitas ir orų prognozės (METAR, TAF).

turimą stotys yra geltonos ir raudonos taškus žemėlapyje.

Perkelti pele per norėdami pamatyti stoties vardą.

Tada spustelėkite, norėdami matyti oro stebėjimo ir prognozės.

Norėdami pakeisti žemėlapį: spustelėkite ant žalios mygtukų su juodo kryžiaus žemyn,; žalią mygtuką su brūkšneliu, jei norite nutolinti; arba žalių rodyklių gretimoms žemėlapius.


METAR-TAF: